Detall de PIREP

Printer-friendly versionPDF version

[2017/01/07 15:32:00]
Flight IATA:CT1004
Pilot Number:012
Company ICAO:CAT
Aircraft Type:DC3/A
PAX:19
Aircraft Registration:PAX
Departing Airport: LIMJ
Destination Airport: LFMP
Alternate Airport:LFBO
Online: VATSIM
Route:LAGEN Q712 ENOBA Z185 BORDI N736 PIGOS Y15 STP A3 RUBIT G7 MTG Y25 FJR
Flight Level:F090
No Slew and time accel
No pause
Crash detect
Detect pilot in Cockpit between each 30 and 45 minutes
15:32 Zero fuel Weight: 19744 Lbs, Fuel Weight: 3000 Lbs
15:32 VATSIM:LIMJ 071520Z 06006KT 030V090 9999 SCT027 BKN032 05/M02 Q1027
15:32 VATSIM:LFMP 071500Z AUTO 32010KT CAVOK 14/M15 Q1028 NOSIG
15:32 XMAS CHARTER
15:32 Parking Brakes off
15:34 Take-off
15:34 Take off Weight: 22727 Lbs
15:34 Wind: 060º @ 006 Knots Heading: 289º
15:34 POS N44º 24´ 49´´ E008º 50´ 01´´
15:34 Gear Up: 100 Knots
15:45 TOC
15:45 Fuel Weight: 2841 Lb
15:49 Wind:359º@009 Knots Heading: 237º Ground Speed: 168 Knots Altitude 9373 ft
16:04 Wind:008º@034 Knots Heading: 219º Ground Speed: 188 Knots Altitude 9373 ft
16:19 Wind:000º@025 Knots Heading: 240º Ground Speed: 180 Knots Altitude 9376 ft
16:34 Wind:002º@027 Knots Heading: 279º Ground Speed: 163 Knots Altitude 9383 ft
16:49 Wind:004º@020 Knots Heading: 255º Ground Speed: 170 Knots Altitude 9429 ft
17:04 Wind:013º@006 Knots Heading: 299º Ground Speed: 163 Knots Altitude 9461 ft
17:19 Wind:013º@006 Knots Heading: 226º Ground Speed: 171 Knots Altitude 9465 ft
17:22 TOD
17:22 Fuel Weight: 1740 Lb
17:34 Wind:289º@009 Knots Heading: 212º Ground Speed: 144 Knots Altitude 2086 ft
17:36 Flaps:1 at 144 Knots
17:36 Flaps:2 at 130 Knots
17:38 Gear Down: 105 Knots
17:39 Flaps:3 at 105 Knots
17:41 Flaps:4 at 93 Knots
17:43 TouchDown:Rate -59 ft/min Speed: 66 Knots
17:43 Flaps:2 at 49 Knots
17:43 Flaps:0 at 48 Knots
17:43 VATSIM:LFMP 071730Z AUTO 28006KT 250V310 CAVOK 11/M16 Q1029 NOSIG
17:43 Land
17:43 Wind:289º@008 Knots
17:43 Heading: 320º
17:43 Flight Duration: 02:09
17:43 Landing Weight: 21325 Lbs
17:43 POS N42º 44´ 43´´ E002º 52´ 08´´
17:45 Parking brakes on
17:45 Block to Block Duration: 02:13
17:45 Final Fuel: 1569 Lbls
17:45 Spent Fuel: 1430 Lbls
17:45 Flight Length: 337 NM
17:45 TOD Land Length: 45 NM

Exportar CSV

Powered by Drupal - Modified by Danger4k